createdAt,value
2023-03-16T00:03:53.265Z,16.00
2023-03-16T00:07:54.700Z,13.10
2023-03-16T00:11:58.384Z,10.63
2023-03-16T00:16:03.838Z,12.63
2023-03-16T00:20:06.573Z,14.57
2023-03-16T00:24:08.256Z,13.03
2023-03-16T00:28:09.249Z,12.57
2023-03-16T00:32:11.186Z,14.80
2023-03-16T00:36:12.443Z,13.77
2023-03-16T00:40:15.229Z,12.47
2023-03-16T00:44:16.356Z,13.57
2023-03-16T00:48:18.063Z,14.27
2023-03-16T00:52:19.888Z,13.80
2023-03-16T00:56:21.046Z,14.67
2023-03-16T01:00:24.648Z,13.73
2023-03-16T01:04:25.913Z,15.20
2023-03-16T01:08:28.937Z,13.40
2023-03-16T01:12:30.092Z,13.07
2023-03-16T01:16:33.079Z,14.37
2023-03-16T01:20:34.137Z,14.53
2023-03-16T01:24:35.837Z,12.10
2023-03-16T01:28:37.142Z,11.90
2023-03-16T01:32:39.346Z,11.60
2023-03-16T01:36:40.527Z,11.13
2023-03-16T01:40:41.518Z,10.70
2023-03-16T01:44:52.377Z,11.37
2023-03-16T01:49:06.310Z,11.17
2023-03-16T01:53:09.341Z,11.47
2023-03-16T01:57:14.020Z,12.00
2023-03-16T02:01:15.300Z,13.07
2023-03-16T02:05:23.262Z,11.07
2023-03-16T02:09:25.926Z,11.80
2023-03-16T02:13:28.929Z,13.13
2023-03-16T02:17:31.637Z,15.60
2023-03-16T02:21:53.551Z,18.13
2023-03-16T02:26:07.576Z,17.23
2023-03-16T02:30:12.737Z,15.80
2023-03-16T02:34:16.116Z,16.67
2023-03-16T02:38:17.219Z,15.50
2023-03-16T02:42:23.532Z,15.80
2023-03-16T02:46:27.736Z,15.10
2023-03-16T02:50:29.778Z,16.63
2023-03-16T02:54:31.098Z,15.37
2023-03-16T02:58:32.268Z,16.83
2023-03-16T03:02:33.425Z,16.90
2023-03-16T03:06:34.872Z,16.60
2023-03-16T03:10:36.131Z,16.17
2023-03-16T03:14:40.047Z,16.57
2023-03-16T03:18:41.231Z,16.20
2023-03-16T03:22:47.719Z,15.73
2023-03-16T03:26:48.843Z,15.17
2023-03-16T03:30:50.888Z,15.20
2023-03-16T03:34:52.333Z,14.30
2023-03-16T03:38:54.265Z,14.17
2023-03-16T03:42:55.376Z,13.67
2023-03-16T03:46:56.402Z,11.57
2023-03-16T03:50:57.779Z,11.10
2023-03-16T03:54:58.993Z,11.60
2023-03-16T03:59:00.086Z,11.23
2023-03-16T04:03:01.382Z,11.63
2023-03-16T04:07:03.360Z,10.67
2023-03-16T04:11:04.824Z,10.00
2023-03-16T04:15:06.457Z,10.07
2023-03-16T04:19:07.443Z,10.13
2023-03-16T04:23:08.504Z,11.53
2023-03-16T04:27:13.203Z,11.03
2023-03-16T04:31:14.376Z,11.23
2023-03-16T04:35:16.995Z,11.53
2023-03-16T04:39:19.355Z,11.60
2023-03-16T04:43:20.591Z,12.03
2023-03-16T04:47:22.677Z,11.30
2023-03-16T04:51:25.027Z,10.43
2023-03-16T04:55:26.350Z,11.17
2023-03-16T04:59:27.518Z,11.67
2023-03-16T05:03:28.489Z,11.80
2023-03-16T05:07:29.478Z,11.83
2023-03-16T05:11:30.563Z,12.57
2023-03-16T05:15:32.701Z,11.20
2023-03-16T05:19:34.255Z,12.50
2023-03-16T05:23:35.220Z,12.00
2023-03-16T05:27:36.223Z,11.70
2023-03-16T05:31:37.983Z,12.50
2023-03-16T05:35:39.160Z,12.10
2023-03-16T05:39:40.219Z,12.17
2023-03-16T05:43:41.361Z,13.37
2023-03-16T05:47:43.128Z,13.27
2023-03-16T05:52:04.381Z,12.33
2023-03-16T05:56:06.023Z,12.47
2023-03-16T06:00:13.696Z,13.80
2023-03-16T06:08:24.887Z,14.40
2023-03-16T06:12:26.076Z,15.73
2023-03-16T06:16:27.475Z,14.37
2023-03-16T06:20:28.710Z,12.63
2023-03-16T06:24:30.607Z,13.63
2023-03-16T06:28:31.791Z,13.23
2023-03-16T06:32:32.928Z,13.50
2023-03-16T06:36:34.016Z,12.43
2023-03-16T06:40:35.008Z,12.87
2023-03-16T06:44:36.881Z,14.07
2023-03-16T06:48:38.135Z,13.13
2023-03-16T06:52:39.423Z,12.93
2023-03-16T06:56:40.411Z,13.33
2023-03-16T07:00:42.300Z,11.23
2023-03-16T07:04:43.429Z,11.63
2023-03-16T07:08:44.554Z,11.30
2023-03-16T07:12:46.287Z,10.90
2023-03-16T07:16:47.241Z,11.17
2023-03-16T07:20:48.218Z,10.87
2023-03-16T07:24:51.256Z,11.20
2023-03-16T07:28:52.455Z,10.97
2023-03-16T07:32:53.595Z,10.53
2023-03-16T07:36:54.564Z,11.03
2023-03-16T07:40:55.556Z,12.07
2023-03-16T07:44:56.514Z,12.87
2023-03-16T07:48:57.803Z,11.10
2023-03-16T07:52:58.761Z,11.17
2023-03-16T07:57:00.669Z,11.40
2023-03-16T08:01:01.938Z,12.03
2023-03-16T08:05:03.361Z,11.90
2023-03-16T08:09:05.359Z,12.63
2023-03-16T08:13:06.657Z,13.37
2023-03-16T08:17:07.865Z,10.67
2023-03-16T08:21:09.385Z,11.97
2023-03-16T08:25:10.364Z,12.87
2023-03-16T08:29:11.502Z,11.90
2023-03-16T08:33:13.076Z,12.70
2023-03-16T08:37:15.950Z,12.63
2023-03-16T08:41:17.251Z,12.67
2023-03-16T08:45:19.490Z,12.33
2023-03-16T08:49:20.603Z,11.13
2023-03-16T08:53:21.793Z,11.60
2023-03-16T08:57:23.030Z,11.00
2023-03-16T09:01:25.231Z,12.40
2023-03-16T09:05:26.357Z,12.60
2023-03-16T09:09:28.371Z,12.83
2023-03-16T09:13:30.135Z,11.77
2023-03-16T09:17:31.132Z,14.13
2023-03-16T09:21:34.379Z,12.73
2023-03-16T09:25:35.653Z,10.83
2023-03-16T09:29:37.089Z,12.83
2023-03-16T09:33:39.365Z,12.90
2023-03-16T09:37:45.648Z,11.80
2023-03-16T09:41:50.115Z,11.90
2023-03-16T09:45:55.202Z,11.03
2023-03-16T09:50:02.814Z,11.10
2023-03-16T09:54:07.850Z,11.17
2023-03-16T09:58:15.808Z,12.53
2023-03-16T10:02:32.982Z,11.00
2023-03-16T10:06:40.936Z,10.67
2023-03-16T10:11:15.095Z,11.63
2023-03-16T10:15:20.402Z,10.80
2023-03-16T10:19:35.206Z,10.93
2023-03-16T10:23:36.419Z,10.63
2023-03-16T10:27:40.295Z,9.97
2023-03-16T10:31:42.311Z,10.93
2023-03-16T10:35:50.178Z,9.10
2023-03-16T10:39:51.693Z,9.70
2023-03-16T10:44:03.828Z,10.90
2023-03-16T10:48:18.541Z,9.63
2023-03-16T10:52:35.942Z,10.77
2023-03-16T10:56:38.060Z,9.87
2023-03-16T11:00:42.814Z,8.93
2023-03-16T11:04:43.951Z,9.27
2023-03-16T11:08:46.444Z,9.30
2023-03-16T11:12:48.471Z,9.97
2023-03-16T11:17:09.929Z,9.80
2023-03-16T11:21:32.147Z,9.40
2023-03-16T11:25:41.092Z,8.77
2023-03-16T11:29:54.419Z,8.93
2023-03-16T11:33:57.181Z,9.63
2023-03-16T11:38:21.031Z,9.93
2023-03-16T11:42:31.633Z,11.10
2023-03-16T11:46:45.783Z,9.00
2023-03-16T11:51:07.351Z,8.83
2023-03-16T11:55:28.232Z,9.43
2023-03-16T11:59:48.977Z,9.10
2023-03-16T12:03:58.723Z,10.00
2023-03-16T12:08:16.337Z,8.43
2023-03-16T12:12:24.193Z,8.67
2023-03-16T12:16:48.992Z,7.97
2023-03-16T12:20:53.544Z,8.87
2023-03-16T12:24:55.014Z,8.00
2023-03-16T12:28:59.309Z,8.00
2023-03-16T12:33:05.373Z,9.07
2023-03-16T12:37:16.485Z,8.40
2023-03-16T12:41:53.922Z,9.17
2023-03-16T12:46:13.994Z,8.97
2023-03-16T12:50:18.310Z,8.93
2023-03-16T12:54:24.927Z,8.43
2023-03-16T12:58:26.844Z,8.30
2023-03-16T13:02:34.099Z,9.83
2023-03-16T13:06:36.486Z,8.40
2023-03-16T13:10:38.521Z,9.17
2023-03-16T13:14:44.017Z,8.80
2023-03-16T13:18:45.522Z,8.43
2023-03-16T13:22:50.453Z,8.60
2023-03-16T13:26:54.301Z,8.27
2023-03-16T13:30:55.581Z,8.63
2023-03-16T13:34:59.499Z,9.87
2023-03-16T13:39:07.225Z,8.70
2023-03-16T13:43:17.464Z,9.80
2023-03-16T13:47:20.354Z,8.77
2023-03-16T13:51:21.965Z,9.10
2023-03-16T13:55:31.562Z,9.53
2023-03-16T13:59:33.117Z,8.53
2023-03-16T14:03:37.885Z,10.67
2023-03-16T14:07:39.132Z,9.83
2023-03-16T14:11:42.202Z,10.73
2023-03-16T14:15:44.944Z,8.93
2023-03-16T14:19:49.932Z,9.73
2023-03-16T14:23:54.599Z,9.23
2023-03-16T14:28:01.115Z,7.97
2023-03-16T14:32:03.121Z,10.00
2023-03-16T14:36:16.944Z,8.57
2023-03-16T14:40:32.552Z,7.93
2023-03-16T14:44:36.279Z,8.70
2023-03-16T14:48:37.566Z,9.07
2023-03-16T14:52:38.814Z,8.77
2023-03-16T14:56:41.807Z,9.03
2023-03-16T15:00:52.717Z,8.80
2023-03-16T15:04:48.084Z,7.10
2023-03-16T15:08:50.257Z,8.43
2023-03-16T15:12:53.202Z,9.30
2023-03-16T15:16:54.277Z,8.27
2023-03-16T15:20:55.940Z,8.47
2023-03-16T15:24:58.203Z,7.70
2023-03-16T15:28:59.175Z,8.10
2023-03-16T15:33:00.829Z,7.50
2023-03-16T15:37:02.354Z,7.53
2023-03-16T15:41:03.624Z,8.23
2023-03-16T15:45:08.553Z,7.93
2023-03-16T15:49:09.566Z,8.23
2023-03-16T15:53:29.622Z,8.10
2023-03-16T15:57:20.183Z,7.33
2023-03-16T16:01:24.820Z,7.80
2023-03-16T16:05:26.069Z,7.93
2023-03-16T16:09:27.024Z,7.20
2023-03-16T16:13:42.942Z,7.97
2023-03-16T16:17:50.613Z,7.00
2023-03-16T16:21:36.152Z,6.43
2023-03-16T16:25:41.494Z,6.10
2023-03-16T16:29:42.520Z,7.10
2023-03-16T16:33:43.850Z,7.10
2023-03-16T16:37:45.200Z,7.27
2023-03-16T16:41:49.269Z,8.73
2023-03-16T16:45:51.262Z,6.40
2023-03-16T16:49:52.470Z,6.77
2023-03-16T16:53:56.552Z,5.83
2023-03-16T16:57:57.627Z,6.47
2023-03-16T17:02:01.238Z,7.00
2023-03-16T17:06:02.244Z,6.93
2023-03-16T17:10:04.407Z,8.20
2023-03-16T17:14:06.966Z,5.70
2023-03-16T17:18:12.584Z,6.80
2023-03-16T17:22:17.701Z,7.53
2023-03-16T17:26:22.844Z,6.20
2023-03-16T17:30:27.284Z,6.23
2023-03-16T17:34:31.322Z,5.93
2023-03-16T17:38:33.127Z,5.37
2023-03-16T17:42:34.448Z,7.37
2023-03-16T17:46:35.868Z,6.73
2023-03-16T17:50:36.982Z,6.40
2023-03-16T17:54:38.022Z,6.90
2023-03-16T17:58:39.838Z,6.40
2023-03-16T18:02:53.609Z,6.47
2023-03-16T18:06:55.199Z,6.23
2023-03-16T18:10:59.004Z,6.60
2023-03-16T18:15:00.400Z,6.57
2023-03-16T18:19:07.265Z,4.87
2023-03-16T18:23:22.040Z,5.93
2023-03-16T18:27:23.915Z,8.37
2023-03-16T18:31:27.794Z,7.37
2023-03-16T18:35:29.531Z,7.13
2023-03-16T18:39:32.051Z,6.20
2023-03-16T18:43:33.093Z,6.80
2023-03-16T18:47:35.284Z,5.90
2023-03-16T18:51:36.629Z,6.03
2023-03-16T18:55:39.838Z,5.60
2023-03-16T18:59:40.937Z,6.23
2023-03-16T19:03:43.801Z,6.20
2023-03-16T19:07:48.177Z,5.63
2023-03-16T19:11:49.735Z,5.37
2023-03-16T19:15:52.873Z,6.30
2023-03-16T19:19:54.041Z,5.60
2023-03-16T19:23:58.801Z,5.90
2023-03-16T19:28:00.804Z,7.17
2023-03-16T19:32:02.367Z,8.40
2023-03-16T19:36:04.540Z,5.30
2023-03-16T19:40:07.342Z,18.60
2023-03-16T19:44:15.643Z,10.67
2023-03-16T19:48:20.499Z,7.20
2023-03-16T19:52:22.122Z,5.97
2023-03-16T19:56:25.580Z,6.60
2023-03-16T20:00:27.609Z,6.90
2023-03-16T20:04:28.809Z,7.27
2023-03-16T20:08:30.437Z,6.50
2023-03-16T20:12:32.390Z,7.67
2023-03-16T20:16:34.844Z,6.27
2023-03-16T20:20:37.070Z,7.73
2023-03-16T20:24:38.314Z,7.43
2023-03-16T20:28:40.252Z,7.33
2023-03-16T20:32:42.519Z,8.13
2023-03-16T20:36:43.520Z,7.70
2023-03-16T20:40:46.950Z,7.90
2023-03-16T20:44:47.968Z,8.77
2023-03-16T20:48:49.980Z,8.40
2023-03-16T20:52:52.054Z,8.40
2023-03-16T20:56:53.190Z,8.00
2023-03-16T21:01:00.785Z,8.80
2023-03-16T21:05:04.984Z,8.53
2023-03-16T21:09:06.052Z,6.90
2023-03-16T21:13:27.742Z,8.87
2023-03-16T21:17:35.203Z,8.80
2023-03-16T21:21:36.951Z,9.40
2023-03-16T21:25:42.174Z,9.33
2023-03-16T21:29:43.399Z,8.40
2023-03-16T21:33:45.030Z,9.03
2023-03-16T21:37:46.162Z,7.73
2023-03-16T21:41:49.392Z,8.40
2023-03-16T21:45:51.522Z,8.13
2023-03-16T21:49:53.905Z,9.77
2023-03-16T21:53:55.238Z,8.90
2023-03-16T21:57:57.614Z,8.70
2023-03-16T22:02:02.237Z,9.13
2023-03-16T22:06:02.014Z,9.10
2023-03-16T22:10:07.524Z,9.00
2023-03-16T22:14:09.417Z,11.93
2023-03-16T22:18:20.956Z,9.17
2023-03-16T22:22:22.232Z,9.60
2023-03-16T22:26:24.115Z,8.67
2023-03-16T22:30:27.651Z,8.43
2023-03-16T22:34:32.537Z,9.10
2023-03-16T22:38:35.056Z,8.67
2023-03-16T22:42:38.558Z,9.40
2023-03-16T22:46:39.627Z,8.93
2023-03-16T22:50:40.703Z,9.77
2023-03-16T22:54:42.484Z,9.50
2023-03-16T22:58:47.390Z,9.20
2023-03-16T23:02:49.202Z,9.20
2023-03-16T23:06:52.727Z,8.73
2023-03-16T23:10:54.699Z,9.87
2023-03-16T23:14:56.900Z,9.37
2023-03-16T23:18:58.453Z,8.80
2023-03-16T23:22:59.772Z,8.97
2023-03-16T23:27:01.575Z,9.47
2023-03-16T23:31:02.687Z,9.97
2023-03-16T23:35:08.242Z,9.70
2023-03-16T23:39:10.467Z,9.80
2023-03-16T23:43:11.517Z,10.20
2023-03-16T23:47:13.134Z,9.43
2023-03-16T23:51:21.428Z,9.80
2023-03-16T23:55:23.487Z,9.50
2023-03-16T23:59:26.006Z,9.57
